sensor_id;sensor_type;location;lat;lon;timestamp;pressure;altitude;pressure_sealevel;temperature;humidity
50430;BME280;36359;41.556;-8.418;2023-02-14T00:00:19;101179.63;;;12.41;56.66
50430;BME280;36359;41.556;-8.418;2023-02-14T00:02:47;101175.47;;;12.76;59.59
50430;BME280;36359;41.556;-8.418;2023-02-14T00:05:13;101179.91;;;12.96;60.19
50430;BME280;36359;41.556;-8.418;2023-02-14T00:07:39;101167.16;;;12.87;59.28
50430;BME280;36359;41.556;-8.418;2023-02-14T00:10:05;101177.94;;;12.60;57.42
50430;BME280;36359;41.556;-8.418;2023-02-14T00:12:31;101176.78;;;12.72;58.18
50430;BME280;36359;41.556;-8.418;2023-02-14T00:14:57;101177.06;;;12.69;58.20
50430;BME280;36359;41.556;-8.418;2023-02-14T00:17:41;101172.34;;;12.71;55.44
50430;BME280;36359;41.556;-8.418;2023-02-14T00:20:07;101174.34;;;12.88;56.17
50430;BME280;36359;41.556;-8.418;2023-02-14T00:22:32;101174.03;;;13.11;56.21
50430;BME280;36359;41.556;-8.418;2023-02-14T00:24:58;101175.19;;;12.79;54.56
50430;BME280;36359;41.556;-8.418;2023-02-14T00:27:24;101161.44;;;12.52;55.52
50430;BME280;36359;41.556;-8.418;2023-02-14T00:29:50;101166.88;;;12.52;54.95
50430;BME280;36359;41.556;-8.418;2023-02-14T00:32:16;101156.59;;;12.65;55.96
50430;BME280;36359;41.556;-8.418;2023-02-14T00:34:43;101161.88;;;12.57;56.14
50430;BME280;36359;41.556;-8.418;2023-02-14T00:37:09;101164.28;;;12.79;56.57
50430;BME280;36359;41.556;-8.418;2023-02-14T00:39:35;101155.25;;;12.98;55.05
50430;BME280;36359;41.556;-8.418;2023-02-14T00:42:00;101157.13;;;12.78;55.12
50430;BME280;36359;41.556;-8.418;2023-02-14T00:44:26;101153.69;;;12.95;54.72
50430;BME280;36359;41.556;-8.418;2023-02-14T00:46:51;101157.44;;;12.94;54.16
50430;BME280;36359;41.556;-8.418;2023-02-14T00:49:17;101149.53;;;12.91;54.29
50430;BME280;36359;41.556;-8.418;2023-02-14T00:51:43;101155.16;;;12.80;54.56
50430;BME280;36359;41.556;-8.418;2023-02-14T00:54:09;101148.56;;;12.54;54.54
50430;BME280;36359;41.556;-8.418;2023-02-14T00:56:35;101141.53;;;12.41;54.94
50430;BME280;36359;41.556;-8.418;2023-02-14T00:59:00;101138.22;;;12.28;56.58
50430;BME280;36359;41.556;-8.418;2023-02-14T01:01:26;101142.22;;;12.43;55.58
50430;BME280;36359;41.556;-8.418;2023-02-14T01:03:52;101134.53;;;12.68;59.29
50430;BME280;36359;41.556;-8.418;2023-02-14T01:06:18;101131.91;;;12.18;57.12
50430;BME280;36359;41.556;-8.418;2023-02-14T01:08:44;101135.91;;;12.23;57.42
50430;BME280;36359;41.556;-8.418;2023-02-14T01:11:14;101127.47;;;12.36;62.96
50430;BME280;36359;41.556;-8.418;2023-02-14T01:13:42;101131.19;;;12.25;58.16
50430;BME280;36359;41.556;-8.418;2023-02-14T01:16:12;101127.53;;;11.86;58.30
50430;BME280;36359;41.556;-8.418;2023-02-14T01:18:38;101119.38;;;11.55;59.09
50430;BME280;36359;41.556;-8.418;2023-02-14T01:23:39;101120.00;;;11.69;59.06
50430;BME280;36359;41.556;-8.418;2023-02-14T01:26:06;101116.84;;;11.64;59.96
50430;BME280;36359;41.556;-8.418;2023-02-14T01:28:33;101119.38;;;11.86;58.55
50430;BME280;36359;41.556;-8.418;2023-02-14T01:31:12;101114.81;;;11.25;60.81
50430;BME280;36359;41.556;-8.418;2023-02-14T01:33:39;101112.13;;;11.35;60.62
50430;BME280;36359;41.556;-8.418;2023-02-14T01:36:06;101102.44;;;11.11;61.74
50430;BME280;36359;41.556;-8.418;2023-02-14T01:38:32;101114.97;;;11.95;61.82
50430;BME280;36359;41.556;-8.418;2023-02-14T01:40:58;101111.00;;;12.18;64.92
50430;BME280;36359;41.556;-8.418;2023-02-14T01:43:24;101101.03;;;11.48;62.19
50430;BME280;36359;41.556;-8.418;2023-02-14T01:45:50;101110.91;;;11.79;61.55
50430;BME280;36359;41.556;-8.418;2023-02-14T01:48:18;101104.88;;;11.14;63.64
50430;BME280;36359;41.556;-8.418;2023-02-14T01:50:46;101101.25;;;11.66;65.85
50430;BME280;36359;41.556;-8.418;2023-02-14T01:53:27;101100.06;;;11.58;65.89
50430;BME280;36359;41.556;-8.418;2023-02-14T01:56:04;101098.06;;;10.99;65.72
50430;BME280;36359;41.556;-8.418;2023-02-14T01:58:36;101098.28;;;10.86;66.48
50430;BME280;36359;41.556;-8.418;2023-02-14T02:01:03;101092.72;;;11.09;66.64
50430;BME280;36359;41.556;-8.418;2023-02-14T02:03:43;101094.34;;;11.21;65.00
50430;BME280;36359;41.556;-8.418;2023-02-14T02:06:19;101099.03;;;11.50;64.52
50430;BME280;36359;41.556;-8.418;2023-02-14T02:09:12;101095.63;;;11.57;63.61
50430;BME280;36359;41.556;-8.418;2023-02-14T02:11:41;101083.06;;;11.56;62.24
50430;BME280;36359;41.556;-8.418;2023-02-14T02:14:18;101083.06;;;11.26;62.28
50430;BME280;36359;41.556;-8.418;2023-02-14T02:25:44;101077.44;;;10.87;61.48
50430;BME280;36359;41.556;-8.418;2023-02-14T02:36:14;101070.50;;;11.34;59.11
50430;BME280;36359;41.556;-8.418;2023-02-14T02:47:21;101056.84;;;11.86;57.86
50430;BME280;36359;41.556;-8.418;2023-02-14T02:50:17;101055.97;;;11.35;58.67
50430;BME280;36359;41.556;-8.418;2023-02-14T02:58:53;101049.88;;;11.63;58.31
50430;BME280;36359;41.556;-8.418;2023-02-14T03:01:27;101049.78;;;11.83;57.60
50430;BME280;36359;41.556;-8.418;2023-02-14T03:04:01;101051.31;;;11.67;57.09
50430;BME280;36359;41.556;-8.418;2023-02-14T03:06:55;101052.72;;;11.51;56.91
50430;BME280;36359;41.556;-8.418;2023-02-14T03:12:35;101042.09;;;11.89;57.71
50430;BME280;36359;41.556;-8.418;2023-02-14T03:18:07;101018.41;;;12.67;56.44
50430;BME280;36359;41.556;-8.418;2023-02-14T03:20:59;101021.94;;;12.30;55.56
50430;BME280;36359;41.556;-8.418;2023-02-14T03:23:32;101023.91;;;12.09;57.50
50430;BME280;36359;41.556;-8.418;2023-02-14T03:26:25;101016.13;;;11.75;57.24
50430;BME280;36359;41.556;-8.418;2023-02-14T03:29:01;101016.72;;;11.78;57.75
50430;BME280;36359;41.556;-8.418;2023-02-14T03:31:57;101008.84;;;11.75;56.65
50430;BME280;36359;41.556;-8.418;2023-02-14T03:34:56;101008.88;;;11.85;55.94
50430;BME280;36359;41.556;-8.418;2023-02-14T03:37:26;101009.75;;;12.05;55.73
50430;BME280;36359;41.556;-8.418;2023-02-14T03:40:05;101000.41;;;12.46;55.61
50430;BME280;36359;41.556;-8.418;2023-02-14T03:42:37;101003.22;;;12.74;55.13
50430;BME280;36359;41.556;-8.418;2023-02-14T03:45:19;100995.47;;;12.79;54.85
50430;BME280;36359;41.556;-8.418;2023-02-14T03:47:47;100997.78;;;12.64;51.55
50430;BME280;36359;41.556;-8.418;2023-02-14T03:50:18;100986.41;;;12.22;53.07
50430;BME280;36359;41.556;-8.418;2023-02-14T03:52:47;100996.59;;;12.00;53.59
50430;BME280;36359;41.556;-8.418;2023-02-14T03:55:19;100995.00;;;11.88;53.92
50430;BME280;36359;41.556;-8.418;2023-02-14T03:57:49;100981.81;;;12.32;56.86
50430;BME280;36359;41.556;-8.418;2023-02-14T04:00:17;100986.13;;;11.86;54.70
50430;BME280;36359;41.556;-8.418;2023-02-14T04:02:47;100983.91;;;11.51;55.22
50430;BME280;36359;41.556;-8.418;2023-02-14T04:05:18;100973.66;;;12.32;56.67
50430;BME280;36359;41.556;-8.418;2023-02-14T04:07:48;100980.56;;;11.97;53.98
50430;BME280;36359;41.556;-8.418;2023-02-14T04:10:16;100977.28;;;12.03;54.44
50430;BME280;36359;41.556;-8.418;2023-02-14T04:12:42;100982.22;;;11.79;55.21
50430;BME280;36359;41.556;-8.418;2023-02-14T04:15:08;100979.50;;;11.79;55.62
50430;BME280;36359;41.556;-8.418;2023-02-14T04:17:34;100979.78;;;11.76;55.56
50430;BME280;36359;41.556;-8.418;2023-02-14T04:20:18;100981.47;;;11.57;56.04
50430;BME280;36359;41.556;-8.418;2023-02-14T04:22:44;100980.28;;;12.00;56.13
50430;BME280;36359;41.556;-8.418;2023-02-14T04:25:13;100975.25;;;11.86;55.51
50430;BME280;36359;41.556;-8.418;2023-02-14T04:27:40;100973.50;;;11.66;55.90
50430;BME280;36359;41.556;-8.418;2023-02-14T04:30:06;100973.50;;;11.66;56.80
50430;BME280;36359;41.556;-8.418;2023-02-14T04:32:32;100968.63;;;11.59;56.59
50430;BME280;36359;41.556;-8.418;2023-02-14T04:34:57;100970.97;;;11.93;59.39
50430;BME280;36359;41.556;-8.418;2023-02-14T04:37:23;100975.50;;;11.83;54.55
50430;BME280;36359;41.556;-8.418;2023-02-14T04:39:49;100981.69;;;12.34;57.97
50430;BME280;36359;41.556;-8.418;2023-02-14T04:42:14;100969.69;;;11.97;54.48
50430;BME280;36359;41.556;-8.418;2023-02-14T04:44:40;100971.94;;;12.12;56.15
50430;BME280;36359;41.556;-8.418;2023-02-14T04:47:07;100979.53;;;12.27;55.39
50430;BME280;36359;41.556;-8.418;2023-02-14T04:49:33;100972.09;;;12.20;58.04
50430;BME280;36359;41.556;-8.418;2023-02-14T04:51:59;100972.25;;;11.99;56.43
50430;BME280;36359;41.556;-8.418;2023-02-14T04:54:28;100976.56;;;11.92;56.82
50430;BME280;36359;41.556;-8.418;2023-02-14T04:56:54;100972.78;;;11.83;56.51
50430;BME280;36359;41.556;-8.418;2023-02-14T04:59:20;100966.81;;;11.99;58.24
50430;BME280;36359;41.556;-8.418;2023-02-14T05:01:47;100967.50;;;12.30;56.43
50430;BME280;36359;41.556;-8.418;2023-02-14T05:04:13;100969.53;;;12.18;55.42
50430;BME280;36359;41.556;-8.418;2023-02-14T05:06:39;100968.38;;;12.01;55.69
50430;BME280;36359;41.556;-8.418;2023-02-14T05:09:05;100966.38;;;12.13;57.43
50430;BME280;36359;41.556;-8.418;2023-02-14T05:11:31;100963.22;;;11.98;56.80
50430;BME280;36359;41.556;-8.418;2023-02-14T05:13:56;100962.50;;;12.16;57.66
50430;BME280;36359;41.556;-8.418;2023-02-14T05:16:23;100964.34;;;12.44;55.56
50430;BME280;36359;41.556;-8.418;2023-02-14T05:18:49;100956.78;;;12.19;54.94
50430;BME280;36359;41.556;-8.418;2023-02-14T05:21:14;100959.78;;;12.25;57.38
50430;BME280;36359;41.556;-8.418;2023-02-14T05:23:40;100951.25;;;12.58;56.78
50430;BME280;36359;41.556;-8.418;2023-02-14T05:26:06;100955.41;;;12.62;54.61
50430;BME280;36359;41.556;-8.418;2023-02-14T05:28:32;100959.03;;;12.43;53.70
50430;BME280;36359;41.556;-8.418;2023-02-14T05:30:58;100950.03;;;12.33;55.34
50430;BME280;36359;41.556;-8.418;2023-02-14T05:33:24;100946.97;;;12.55;54.84
50430;BME280;36359;41.556;-8.418;2023-02-14T05:35:49;100945.03;;;12.75;53.72
50430;BME280;36359;41.556;-8.418;2023-02-14T05:38:16;100950.91;;;12.80;53.02
50430;BME280;36359;41.556;-8.418;2023-02-14T05:40:42;100950.41;;;12.94;53.42
50430;BME280;36359;41.556;-8.418;2023-02-14T05:43:08;100947.09;;;13.01;54.19
50430;BME280;36359;41.556;-8.418;2023-02-14T05:45:34;100945.97;;;13.21;53.62
50430;BME280;36359;41.556;-8.418;2023-02-14T05:47:59;100951.22;;;13.05;52.37
50430;BME280;36359;41.556;-8.418;2023-02-14T05:50:26;100946.66;;;13.23;53.45
50430;BME280;36359;41.556;-8.418;2023-02-14T05:52:53;100947.88;;;13.11;51.81
50430;BME280;36359;41.556;-8.418;2023-02-14T05:55:18;100936.19;;;13.28;52.40
50430;BME280;36359;41.556;-8.418;2023-02-14T05:57:44;100943.84;;;12.87;52.21
50430;BME280;36359;41.556;-8.418;2023-02-14T06:00:10;100947.03;;;12.73;53.36
50430;BME280;36359;41.556;-8.418;2023-02-14T06:02:39;100941.22;;;12.68;55.19
50430;BME280;36359;41.556;-8.418;2023-02-14T06:05:06;100946.44;;;12.32;55.12
50430;BME280;36359;41.556;-8.418;2023-02-14T06:07:32;100940.03;;;12.14;54.94
50430;BME280;36359;41.556;-8.418;2023-02-14T06:09:57;100936.28;;;11.76;55.99
50430;BME280;36359;41.556;-8.418;2023-02-14T06:12:23;100928.03;;;11.87;56.56
50430;BME280;36359;41.556;-8.418;2023-02-14T06:14:49;100936.75;;;12.10;55.28
50430;BME280;36359;41.556;-8.418;2023-02-14T06:17:14;100942.00;;;11.73;55.31
50430;BME280;36359;41.556;-8.418;2023-02-14T06:19:40;100930.59;;;11.98;54.80
50430;BME280;36359;41.556;-8.418;2023-02-14T06:22:08;100934.28;;;12.36;56.35
50430;BME280;36359;41.556;-8.418;2023-02-14T06:24:34;100936.00;;;12.27;52.56
50430;BME280;36359;41.556;-8.418;2023-02-14T06:26:59;100935.00;;;12.38;53.37
50430;BME280;36359;41.556;-8.418;2023-02-14T06:29:25;100935.69;;;12.40;53.17
50430;BME280;36359;41.556;-8.418;2023-02-14T06:31:51;100938.56;;;12.29;52.32
50430;BME280;36359;41.556;-8.418;2023-02-14T06:34:17;100929.88;;;12.16;52.31
50430;BME280;36359;41.556;-8.418;2023-02-14T06:36:43;100929.81;;;12.35;53.03
50430;BME280;36359;41.556;-8.418;2023-02-14T06:39:09;100937.88;;;12.17;52.21
50430;BME280;36359;41.556;-8.418;2023-02-14T06:41:34;100937.13;;;12.44;53.99
50430;BME280;36359;41.556;-8.418;2023-02-14T06:44:00;100935.91;;;12.10;54.06
50430;BME280;36359;41.556;-8.418;2023-02-14T06:46:26;100941.75;;;13.09;54.84
50430;BME280;36359;41.556;-8.418;2023-02-14T06:48:51;100941.81;;;12.62;53.69
50430;BME280;36359;41.556;-8.418;2023-02-14T06:51:17;100939.59;;;12.18;54.27
50430;BME280;36359;41.556;-8.418;2023-02-14T06:53:43;100936.81;;;12.38;53.62
50430;BME280;36359;41.556;-8.418;2023-02-14T06:56:08;100941.81;;;12.62;52.35
50430;BME280;36359;41.556;-8.418;2023-02-14T06:58:34;100934.75;;;12.69;51.88
50430;BME280;36359;41.556;-8.418;2023-02-14T07:01:00;100933.34;;;12.65;52.40
50430;BME280;36359;41.556;-8.418;2023-02-14T07:03:26;100941.38;;;12.47;51.95
50430;BME280;36359;41.556;-8.418;2023-02-14T07:05:52;100945.59;;;12.41;51.94
50430;BME280;36359;41.556;-8.418;2023-02-14T07:08:19;100943.84;;;12.50;51.63
50430;BME280;36359;41.556;-8.418;2023-02-14T07:10:45;100945.88;;;12.76;51.28
50430;BME280;36359;41.556;-8.418;2023-02-14T07:13:11;100951.19;;;12.77;53.09
50430;BME280;36359;41.556;-8.418;2023-02-14T07:15:37;100949.63;;;12.75;51.40
50430;BME280;36359;41.556;-8.418;2023-02-14T07:18:02;100952.00;;;12.87;50.78
50430;BME280;36359;41.556;-8.418;2023-02-14T07:20:28;100956.41;;;12.98;52.34
50430;BME280;36359;41.556;-8.418;2023-02-14T07:22:54;100958.09;;;13.09;50.46
50430;BME280;36359;41.556;-8.418;2023-02-14T07:25:20;100954.75;;;13.15;49.72
50430;BME280;36359;41.556;-8.418;2023-02-14T07:27:46;100952.06;;;13.05;50.28
50430;BME280;36359;41.556;-8.418;2023-02-14T07:30:12;100949.50;;;13.04;50.36
50430;BME280;36359;41.556;-8.418;2023-02-14T07:32:39;100948.34;;;13.06;49.80
50430;BME280;36359;41.556;-8.418;2023-02-14T07:35:05;100951.47;;;13.11;50.48
50430;BME280;36359;41.556;-8.418;2023-02-14T07:37:32;100944.75;;;13.06;50.84
50430;BME280;36359;41.556;-8.418;2023-02-14T07:39:58;100945.81;;;12.95;54.12
50430;BME280;36359;41.556;-8.418;2023-02-14T07:42:24;100939.88;;;12.72;50.32
50430;BME280;36359;41.556;-8.418;2023-02-14T07:44:49;100943.59;;;12.81;50.97
50430;BME280;36359;41.556;-8.418;2023-02-14T07:47:15;100938.63;;;13.31;53.44
50430;BME280;36359;41.556;-8.418;2023-02-14T07:49:41;100943.75;;;13.62;53.11
50430;BME280;36359;41.556;-8.418;2023-02-14T07:52:07;100950.66;;;13.56;50.23
50430;BME280;36359;41.556;-8.418;2023-02-14T07:54:33;100951.22;;;13.60;50.35
50430;BME280;36359;41.556;-8.418;2023-02-14T07:56:59;100949.22;;;13.34;51.27
50430;BME280;36359;41.556;-8.418;2023-02-14T07:59:25;100948.22;;;13.35;51.20
50430;BME280;36359;41.556;-8.418;2023-02-14T08:01:50;100959.94;;;13.81;51.64
50430;BME280;36359;41.556;-8.418;2023-02-14T08:04:16;100957.94;;;13.38;50.60
50430;BME280;36359;41.556;-8.418;2023-02-14T08:06:42;100947.63;;;13.77;50.15
50430;BME280;36359;41.556;-8.418;2023-02-14T08:09:09;100952.69;;;13.54;49.77
50430;BME280;36359;41.556;-8.418;2023-02-14T08:11:36;100958.94;;;14.00;54.48
50430;BME280;36359;41.556;-8.418;2023-02-14T08:14:21;100961.25;;;14.13;50.50
50430;BME280;36359;41.556;-8.418;2023-02-14T08:16:47;100956.91;;;13.84;48.95
50430;BME280;36359;41.556;-8.418;2023-02-14T08:19:14;100957.81;;;13.57;49.45
50430;BME280;36359;41.556;-8.418;2023-02-14T08:21:39;100962.03;;;13.24;50.10
50430;BME280;36359;41.556;-8.418;2023-02-14T08:24:05;100955.25;;;13.01;51.01
50430;BME280;36359;41.556;-8.418;2023-02-14T08:26:31;100956.31;;;13.27;49.88
50430;BME280;36359;41.556;-8.418;2023-02-14T08:28:57;100954.25;;;13.29;49.64
50430;BME280;36359;41.556;-8.418;2023-02-14T08:31:29;100961.97;;;13.79;49.79
50430;BME280;36359;41.556;-8.418;2023-02-14T08:33:56;100962.22;;;14.48;50.90
50430;BME280;36359;41.556;-8.418;2023-02-14T08:36:22;100961.97;;;14.15;49.88
50430;BME280;36359;41.556;-8.418;2023-02-14T08:38:48;100966.72;;;14.13;47.61
50430;BME280;36359;41.556;-8.418;2023-02-14T08:41:15;100958.94;;;14.00;47.23
50430;BME280;36359;41.556;-8.418;2023-02-14T08:43:41;100955.44;;;14.34;49.70
50430;BME280;36359;41.556;-8.418;2023-02-14T08:46:07;100964.44;;;14.08;47.16
50430;BME280;36359;41.556;-8.418;2023-02-14T08:48:34;100957.13;;;14.27;49.81
50430;BME280;36359;41.556;-8.418;2023-02-14T08:51:11;100965.34;;;14.09;49.10
50430;BME280;36359;41.556;-8.418;2023-02-14T08:53:38;100962.53;;;13.83;47.83
50430;BME280;36359;41.556;-8.418;2023-02-14T08:56:05;100957.53;;;13.78;48.28
50430;BME280;36359;41.556;-8.418;2023-02-14T08:58:32;100951.44;;;13.84;48.42
50430;BME280;36359;41.556;-8.418;2023-02-14T09:01:01;100950.13;;;13.89;48.46
50430;BME280;36359;41.556;-8.418;2023-02-14T09:03:27;100954.56;;;13.90;48.61
50430;BME280;36359;41.556;-8.418;2023-02-14T09:05:52;100956.25;;;14.08;48.81
50430;BME280;36359;41.556;-8.418;2023-02-14T09:08:18;100965.38;;;13.99;48.35
50430;BME280;36359;41.556;-8.418;2023-02-14T09:10:44;100956.13;;;13.92;48.82
50430;BME280;36359;41.556;-8.418;2023-02-14T09:13:10;100950.81;;;13.91;49.79
50430;BME280;36359;41.556;-8.418;2023-02-14T09:15:35;100951.69;;;14.09;49.02
50430;BME280;36359;41.556;-8.418;2023-02-14T09:18:02;100950.31;;;14.31;49.28
50430;BME280;36359;41.556;-8.418;2023-02-14T09:20:29;100940.59;;;14.54;49.92
50430;BME280;36359;41.556;-8.418;2023-02-14T09:22:55;100945.63;;;14.41;48.83
50430;BME280;36359;41.556;-8.418;2023-02-14T09:25:21;100943.16;;;14.30;48.25
50430;BME280;36359;41.556;-8.418;2023-02-14T09:27:47;100941.59;;;14.27;48.48
50430;BME280;36359;41.556;-8.418;2023-02-14T09:30:15;100939.28;;;14.41;50.54
50430;BME280;36359;41.556;-8.418;2023-02-14T09:32:41;100954.44;;;14.53;48.60
50430;BME280;36359;41.556;-8.418;2023-02-14T09:35:06;100946.47;;;14.42;48.48
50430;BME280;36359;41.556;-8.418;2023-02-14T09:37:32;100944.91;;;14.39;49.01
50430;BME280;36359;41.556;-8.418;2023-02-14T09:39:58;100950.81;;;14.52;49.06
50430;BME280;36359;41.556;-8.418;2023-02-14T09:45:28;100943.53;;;14.53;49.55
50430;BME280;36359;41.556;-8.418;2023-02-14T09:48:05;100944.19;;;14.55;50.54
50430;BME280;36359;41.556;-8.418;2023-02-14T09:50:37;100943.19;;;14.56;48.11
50430;BME280;36359;41.556;-8.418;2023-02-14T09:55:48;100951.75;;;14.61;48.83
50430;BME280;36359;41.556;-8.418;2023-02-14T09:58:21;100931.06;;;14.59;47.73
50430;BME280;36359;41.556;-8.418;2023-02-14T10:00:53;100943.94;;;14.66;48.32
50430;BME280;36359;41.556;-8.418;2023-02-14T10:06:03;100949.44;;;15.09;49.20
50430;BME280;36359;41.556;-8.418;2023-02-14T10:11:28;100952.16;;;15.51;54.60
50430;BME280;36359;41.556;-8.418;2023-02-14T10:14:00;100939.22;;;15.70;51.95
50430;BME280;36359;41.556;-8.418;2023-02-14T10:16:48;100949.78;;;15.64;49.88
50430;BME280;36359;41.556;-8.418;2023-02-14T10:19:27;100952.84;;;15.53;50.91
50430;BME280;36359;41.556;-8.418;2023-02-14T10:22:06;100952.78;;;15.37;49.95
50430;BME280;36359;41.556;-8.418;2023-02-14T10:27:34;100952.41;;;15.24;48.07
50430;BME280;36359;41.556;-8.418;2023-02-14T10:30:02;100946.00;;;15.49;53.06
50430;BME280;36359;41.556;-8.418;2023-02-14T10:32:55;100948.06;;;15.55;50.65
50430;BME280;36359;41.556;-8.418;2023-02-14T10:38:14;100951.47;;;15.49;48.66
50430;BME280;36359;41.556;-8.418;2023-02-14T10:46:38;100952.50;;;15.64;46.82
50430;BME280;36359;41.556;-8.418;2023-02-14T10:52:31;100940.59;;;15.82;48.42
50430;BME280;36359;41.556;-8.418;2023-02-14T10:55:13;100934.66;;;15.95;51.67
50430;BME280;36359;41.556;-8.418;2023-02-14T10:57:43;100924.31;;;15.64;47.19
50430;BME280;36359;41.556;-8.418;2023-02-14T11:00:21;100927.44;;;15.77;46.19
50430;BME280;36359;41.556;-8.418;2023-02-14T11:02:51;100922.16;;;15.84;51.48
50430;BME280;36359;41.556;-8.418;2023-02-14T11:05:25;100906.75;;;15.91;48.25
50430;BME280;36359;41.556;-8.418;2023-02-14T11:07:52;100907.44;;;16.09;48.03
50430;BME280;36359;41.556;-8.418;2023-02-14T11:10:24;100912.91;;;16.18;45.42
50430;BME280;36359;41.556;-8.418;2023-02-14T11:12:51;100907.78;;;16.23;46.14
50430;BME280;36359;41.556;-8.418;2023-02-14T11:15:27;100909.81;;;16.45;47.48
50430;BME280;36359;41.556;-8.418;2023-02-14T11:20:42;100894.91;;;16.56;45.69
50430;BME280;36359;41.556;-8.418;2023-02-14T11:23:20;100892.66;;;16.51;47.35
50430;BME280;36359;41.556;-8.418;2023-02-14T11:25:51;100894.34;;;16.69;47.46
50430;BME280;36359;41.556;-8.418;2023-02-14T11:28:20;100893.47;;;16.76;45.93
50430;BME280;36359;41.556;-8.418;2023-02-14T11:30:48;100893.63;;;16.83;49.05
50430;BME280;36359;41.556;-8.418;2023-02-14T11:33:33;100879.84;;;16.99;49.75
50430;BME280;36359;41.556;-8.418;2023-02-14T11:36:00;100877.28;;;17.06;47.71
50430;BME280;36359;41.556;-8.418;2023-02-14T11:38:30;100870.38;;;17.10;44.46
50430;BME280;36359;41.556;-8.418;2023-02-14T11:40:58;100867.25;;;17.21;47.36
50430;BME280;36359;41.556;-8.418;2023-02-14T11:43:41;100864.09;;;17.33;48.40
50430;BME280;36359;41.556;-8.418;2023-02-14T11:48:54;100859.69;;;17.46;48.10
50430;BME280;36359;41.556;-8.418;2023-02-14T11:51:29;100842.28;;;17.62;46.94
50430;BME280;36359;41.556;-8.418;2023-02-14T11:53:57;100855.69;;;17.57;44.26
50430;BME280;36359;41.556;-8.418;2023-02-14T11:57:10;100843.59;;;17.43;43.53
50430;BME280;36359;41.556;-8.418;2023-02-14T12:04:46;100829.50;;;17.69;44.06
50430;BME280;36359;41.556;-8.418;2023-02-14T12:07:15;100818.97;;;17.81;46.78
50430;BME280;36359;41.556;-8.418;2023-02-14T12:09:42;100818.66;;;17.76;42.53
50430;BME280;36359;41.556;-8.418;2023-02-14T12:12:20;100807.31;;;17.79;43.70
50430;BME280;36359;41.556;-8.418;2023-02-14T12:14:48;100795.50;;;17.79;44.16
50430;BME280;36359;41.556;-8.418;2023-02-14T12:17:28;100785.97;;;17.89;47.76
50430;BME280;36359;41.556;-8.418;2023-02-14T12:20:03;100786.28;;;17.95;48.36
50430;BME280;36359;41.556;-8.418;2023-02-14T12:22:56;100783.94;;;18.06;47.90
50430;BME280;36359;41.556;-8.418;2023-02-14T12:25:30;100781.19;;;18.21;43.22
50430;BME280;36359;41.556;-8.418;2023-02-14T12:28:09;100772.81;;;18.29;45.50
50430;BME280;36359;41.556;-8.418;2023-02-14T12:30:36;100774.34;;;18.32;44.22
50430;BME280;36359;41.556;-8.418;2023-02-14T12:33:02;100778.16;;;18.31;44.04
50430;BME280;36359;41.556;-8.418;2023-02-14T12:35:54;100776.16;;;18.25;41.11
50430;BME280;36359;41.556;-8.418;2023-02-14T12:44:41;100765.34;;;18.23;42.11
50430;BME280;36359;41.556;-8.418;2023-02-14T12:55:49;100742.91;;;18.34;41.55
50430;BME280;36359;41.556;-8.418;2023-02-14T13:06:29;100730.75;;;18.44;40.54
50430;BME280;36359;41.556;-8.418;2023-02-14T13:09:26;100724.50;;;18.50;41.23
50430;BME280;36359;41.556;-8.418;2023-02-14T13:18:17;100706.59;;;18.54;41.35
50430;BME280;36359;41.556;-8.418;2023-02-14T13:20:54;100681.88;;;18.54;40.96
50430;BME280;36359;41.556;-8.418;2023-02-14T13:23:38;100689.41;;;18.67;41.07
50430;BME280;36359;41.556;-8.418;2023-02-14T13:28:54;100664.00;;;18.79;39.74
50430;BME280;36359;41.556;-8.418;2023-02-14T13:31:20;100649.59;;;18.77;40.27
50430;BME280;36359;41.556;-8.418;2023-02-14T13:33:53;100649.72;;;18.91;39.73
50430;BME280;36359;41.556;-8.418;2023-02-14T13:36:21;100643.31;;;18.83;40.15
50430;BME280;36359;41.556;-8.418;2023-02-14T13:38:52;100638.34;;;18.94;40.29
50430;BME280;36359;41.556;-8.418;2023-02-14T13:41:19;100634.59;;;19.01;39.83
50430;BME280;36359;41.556;-8.418;2023-02-14T13:43:49;100623.41;;;19.03;39.75
50430;BME280;36359;41.556;-8.418;2023-02-14T13:46:18;100619.22;;;19.07;39.21
50430;BME280;36359;41.556;-8.418;2023-02-14T13:51:51;100611.41;;;19.11;39.15
50430;BME280;36359;41.556;-8.418;2023-02-14T13:54:21;100608.47;;;19.12;39.21
50430;BME280;36359;41.556;-8.418;2023-02-14T13:56:52;100600.47;;;19.17;39.37
50430;BME280;36359;41.556;-8.418;2023-02-14T14:01:51;100586.72;;;19.17;38.41
50430;BME280;36359;41.556;-8.418;2023-02-14T14:17:40;100579.44;;;19.38;39.14
50430;BME280;36359;41.556;-8.418;2023-02-14T14:22:54;100572.94;;;19.17;39.57
50430;BME280;36359;41.556;-8.418;2023-02-14T14:25:40;100575.13;;;19.22;40.10
